createdAt,value
2018-11-20T00:01:29.090Z,94.65
2018-11-20T00:03:59.301Z,93.87
2018-11-20T00:06:28.366Z,93.30
2018-11-20T00:08:57.481Z,93.78
2018-11-20T00:11:26.560Z,93.77
2018-11-20T00:13:55.627Z,93.57
2018-11-20T00:19:00.381Z,94.16
2018-11-20T00:21:29.445Z,93.60
2018-11-20T00:23:58.526Z,93.40
2018-11-20T00:29:03.329Z,93.92
2018-11-20T00:31:33.412Z,94.44
2018-11-20T00:34:02.492Z,94.22
2018-11-20T00:36:31.561Z,93.42
2018-11-20T00:39:00.660Z,94.10
2018-11-20T00:41:29.741Z,94.28
2018-11-20T00:43:58.854Z,93.78
2018-11-20T00:46:28.105Z,93.49
2018-11-20T00:48:57.165Z,93.99
2018-11-20T00:51:26.243Z,94.35
2018-11-20T00:53:55.325Z,93.15
2018-11-20T00:59:02.082Z,93.46
2018-11-20T01:01:31.281Z,93.02
2018-11-20T01:04:00.474Z,93.39
2018-11-20T01:06:29.575Z,94.27
2018-11-20T01:08:59.540Z,94.65
2018-11-20T01:11:28.607Z,94.79
2018-11-20T01:13:57.662Z,94.77
2018-11-20T01:16:26.760Z,94.59
2018-11-20T01:18:55.813Z,94.83
2018-11-20T01:21:24.880Z,93.38
2018-11-20T01:23:53.990Z,93.52
2018-11-20T01:26:23.053Z,93.84
2018-11-20T01:28:52.127Z,93.29
2018-11-20T01:31:21.721Z,92.22
2018-11-20T01:33:50.774Z,92.47
2018-11-20T01:36:19.924Z,91.46
2018-11-20T01:38:50.084Z,91.74
2018-11-20T01:41:19.259Z,92.77
2018-11-20T01:43:48.511Z,91.39
2018-11-20T01:46:17.669Z,91.83
2018-11-20T01:48:46.775Z,92.38
2018-11-20T01:51:16.081Z,92.08
2018-11-20T01:53:45.095Z,93.03
2018-11-20T01:56:14.889Z,93.80
2018-11-20T01:58:43.961Z,93.38
2018-11-20T02:01:13.076Z,93.92
2018-11-20T02:03:42.475Z,93.12
2018-11-20T02:06:11.546Z,92.55
2018-11-20T02:08:40.617Z,93.34
2018-11-20T02:11:10.707Z,93.02
2018-11-20T02:13:40.102Z,92.67
2018-11-20T02:16:10.101Z,94.39
2018-11-20T02:18:41.467Z,93.98
2018-11-20T02:21:10.567Z,93.66
2018-11-20T02:23:39.786Z,92.87
2018-11-20T02:26:09.003Z,93.01
2018-11-20T02:28:38.049Z,92.99
2018-11-20T02:31:07.175Z,92.92
2018-11-20T02:33:36.240Z,93.91
2018-11-20T02:38:41.069Z,94.92
2018-11-20T02:41:10.408Z,94.02
2018-11-20T02:43:39.475Z,94.83
2018-11-20T02:46:08.590Z,94.95
2018-11-20T02:51:14.933Z,95.27
2018-11-20T02:53:44.637Z,94.96
2018-11-20T02:56:13.706Z,94.33
2018-11-20T02:58:43.645Z,94.78
2018-11-20T03:01:12.720Z,95.21
2018-11-20T03:03:42.915Z,95.17
2018-11-20T03:06:12.698Z,95.48
2018-11-20T03:14:08.352Z,95.87
2018-11-20T03:16:37.415Z,95.46
2018-11-20T03:19:07.470Z,94.56
2018-11-20T03:21:36.790Z,95.02
2018-11-20T03:24:05.931Z,95.20
2018-11-20T03:26:35.018Z,95.19
2018-11-20T03:29:04.136Z,95.81
2018-11-20T03:31:34.266Z,95.86
2018-11-20T03:34:03.389Z,95.06
2018-11-20T03:36:32.459Z,94.97
2018-11-20T03:39:01.522Z,95.53
2018-11-20T03:41:30.597Z,96.10
2018-11-20T03:43:59.937Z,95.52
2018-11-20T03:46:29.004Z,96.21
2018-11-20T03:48:58.225Z,96.78
2018-11-20T03:51:27.296Z,95.76
2018-11-20T03:53:56.370Z,95.26
2018-11-20T03:56:25.578Z,96.17
2018-11-20T03:58:54.641Z,96.25
2018-11-20T04:01:23.717Z,95.89
2018-11-20T04:03:52.765Z,95.96
2018-11-20T04:06:21.818Z,95.92
2018-11-20T04:08:51.041Z,95.19
2018-11-20T04:11:20.098Z,95.19
2018-11-20T04:13:49.167Z,95.08
2018-11-20T04:16:18.243Z,95.02
2018-11-20T04:18:47.289Z,94.78
2018-11-20T04:23:52.100Z,93.61
2018-11-20T04:26:21.325Z,94.18
2018-11-20T04:28:50.389Z,94.85
2018-11-20T04:34:27.842Z,94.02
2018-11-20T04:36:57.082Z,93.79
2018-11-20T04:39:26.136Z,93.37
2018-11-20T04:41:55.191Z,94.93
2018-11-20T04:44:24.231Z,95.15
2018-11-20T04:46:53.361Z,94.98
2018-11-20T04:49:22.434Z,93.76
2018-11-20T04:51:52.390Z,94.09
2018-11-20T04:54:22.373Z,95.15
2018-11-20T04:56:51.469Z,94.10
2018-11-20T04:59:20.538Z,94.60
2018-11-20T05:01:49.705Z,94.66
2018-11-20T05:04:18.770Z,94.59
2018-11-20T05:06:47.869Z,94.95
2018-11-20T05:09:18.821Z,95.46
2018-11-20T05:11:47.861Z,96.11
2018-11-20T05:14:16.918Z,96.09
2018-11-20T05:16:45.976Z,95.89
2018-11-20T05:19:15.017Z,95.63
2018-11-20T05:21:44.201Z,96.05
2018-11-20T05:24:13.270Z,95.72
2018-11-20T05:26:42.341Z,95.58
2018-11-20T05:29:11.536Z,95.68
2018-11-20T05:31:40.592Z,95.73
2018-11-20T05:34:09.688Z,96.00
2018-11-20T05:36:38.739Z,96.39
2018-11-20T05:39:07.804Z,96.25
2018-11-20T05:41:36.845Z,96.56
2018-11-20T05:44:05.931Z,96.06
2018-11-20T05:46:35.948Z,95.70
2018-11-20T05:49:05.934Z,95.23
2018-11-20T05:51:35.041Z,95.84
2018-11-20T05:54:04.093Z,96.23
2018-11-20T05:56:54.511Z,96.07
2018-11-20T05:59:25.579Z,95.80
2018-11-20T06:01:55.531Z,95.51
2018-11-20T06:04:24.683Z,95.38
2018-11-20T06:06:53.733Z,94.78
2018-11-20T06:09:24.552Z,94.99
2018-11-20T06:11:55.079Z,94.61
2018-11-20T06:17:01.908Z,93.69
2018-11-20T06:22:06.869Z,94.82
2018-11-20T06:24:35.950Z,94.97
2018-11-20T06:27:05.003Z,95.36
2018-11-20T06:29:34.072Z,95.59
2018-11-20T06:34:38.949Z,94.95
2018-11-20T06:37:08.005Z,94.63
2018-11-20T06:39:37.061Z,95.40
2018-11-20T06:44:41.958Z,94.52
2018-11-20T06:47:11.130Z,94.55
2018-11-20T06:49:40.079Z,94.64
2018-11-20T06:52:09.139Z,94.12
2018-11-20T06:54:38.204Z,93.97
2018-11-20T06:57:07.429Z,94.56
2018-11-20T07:02:12.297Z,94.60
2018-11-20T07:04:41.344Z,94.00
2018-11-20T07:07:10.579Z,93.12
2018-11-20T07:09:39.592Z,92.94
2018-11-20T07:12:08.819Z,93.49
2018-11-20T07:14:37.897Z,93.42
2018-11-20T07:17:06.941Z,93.26
2018-11-20T07:19:38.003Z,93.62
2018-11-20T07:22:07.045Z,92.34
2018-11-20T07:24:36.123Z,92.22
2018-11-20T07:27:05.835Z,90.57
2018-11-20T07:32:10.614Z,88.67
2018-11-20T07:34:42.344Z,88.42
2018-11-20T07:37:13.663Z,85.47
2018-11-20T07:39:43.652Z,84.62
2018-11-20T07:42:12.706Z,83.72
2018-11-20T07:44:44.524Z,83.04
2018-11-20T07:47:13.604Z,82.19
2018-11-20T07:49:43.631Z,84.10
2018-11-20T07:52:16.676Z,82.90
2018-11-20T07:54:45.725Z,82.50
2018-11-20T07:59:51.628Z,83.51
2018-11-20T08:02:21.276Z,83.29
2018-11-20T08:04:50.245Z,83.48
2018-11-20T08:09:55.082Z,83.17
2018-11-20T08:12:29.014Z,82.92
2018-11-20T08:14:59.192Z,83.40
2018-11-20T08:17:28.277Z,81.58
2018-11-20T08:19:57.329Z,79.77
2018-11-20T08:25:02.159Z,79.00
2018-11-20T08:27:31.355Z,78.20
2018-11-20T08:30:00.391Z,79.29
2018-11-20T08:32:29.510Z,76.71
2018-11-20T08:34:59.019Z,78.20
2018-11-20T08:37:28.079Z,76.36
2018-11-20T08:39:57.155Z,75.80
2018-11-20T08:45:01.900Z,77.57
2018-11-20T08:50:07.371Z,76.25
2018-11-20T08:52:36.416Z,77.11
2018-11-20T08:55:05.530Z,76.22
2018-11-20T08:57:34.581Z,79.44
2018-11-20T09:00:03.639Z,80.67
2018-11-20T09:02:32.935Z,80.82
2018-11-20T09:07:37.668Z,70.20
2018-11-20T09:10:07.734Z,70.96
2018-11-20T09:12:36.742Z,68.85
2018-11-20T09:15:06.784Z,60.63
2018-11-20T09:17:35.911Z,62.19
2018-11-20T09:20:05.057Z,67.99
2018-11-20T09:22:34.794Z,61.42
2018-11-20T09:27:40.032Z,52.79
2018-11-20T09:30:09.102Z,48.36
2018-11-20T09:32:38.157Z,50.24
2018-11-20T09:35:09.573Z,51.95
2018-11-20T09:42:53.149Z,50.50
2018-11-20T09:45:22.488Z,44.74
2018-11-20T09:47:51.534Z,50.80
2018-11-20T09:50:20.612Z,54.80
2018-11-20T09:52:50.837Z,55.98
2018-11-20T09:55:19.775Z,54.36
2018-11-20T09:57:49.737Z,48.30
2018-11-20T10:00:19.025Z,47.50
2018-11-20T10:02:55.640Z,50.38
2018-11-20T10:05:24.707Z,44.48
2018-11-20T10:07:53.927Z,48.98
2018-11-20T10:10:23.276Z,47.51
2018-11-20T10:15:28.143Z,38.16
2018-11-20T10:17:59.614Z,42.71
2018-11-20T10:20:28.677Z,38.53
2018-11-20T10:22:58.769Z,42.65
2018-11-20T10:25:28.342Z,49.60
2018-11-20T10:27:57.265Z,46.48
2018-11-20T10:30:26.358Z,39.41
2018-11-20T10:32:56.849Z,39.63
2018-11-20T10:35:26.033Z,39.67
2018-11-20T10:37:55.077Z,35.64
2018-11-20T10:40:24.475Z,43.99
2018-11-20T10:45:29.679Z,41.13
2018-11-20T10:50:34.944Z,46.34
2018-11-20T10:53:04.026Z,49.07
2018-11-20T10:55:33.103Z,42.63
2018-11-20T10:58:02.162Z,42.11
2018-11-20T11:00:31.231Z,36.44
2018-11-20T11:05:56.854Z,41.17
2018-11-20T11:11:12.759Z,39.56
2018-11-20T11:13:42.986Z,44.30
2018-11-20T11:16:13.001Z,35.77
2018-11-20T11:18:42.058Z,33.10
2018-11-20T11:21:11.671Z,36.47
2018-11-20T11:23:42.661Z,31.88
2018-11-20T11:28:51.291Z,28.38
2018-11-20T11:31:16.734Z,28.30
2018-11-20T11:33:47.387Z,28.32
2018-11-20T11:36:17.347Z,33.20
2018-11-20T11:41:23.915Z,30.56
2018-11-20T11:43:52.974Z,30.25
2018-11-20T11:46:22.311Z,36.83
2018-11-20T11:48:51.382Z,34.01
2018-11-20T11:51:23.738Z,32.41
2018-11-20T11:53:50.044Z,31.46
2018-11-20T11:56:19.109Z,29.16
2018-11-20T11:58:48.169Z,34.91
2018-11-20T12:01:18.003Z,35.96
